Time;durP1;ratioP1;P1;durP2;ratioP2;P2;SDS_P1;SDS_P2;PMS_P1;PMS_P2;Temp;Humidity;BMP_temperature;BMP_pressure;BME280_temperature;BME280_humidity;BME280_pressure;Samples;Min_cycle;Max_cycle;Signal;HPM_P1;HPM_P2
2021/08/19 00:02:15;;;;;;;12.95;7.20;;;;;;;;;;5080305;28;20056;-86
2021/08/19 00:04:42;;;;;;;10.75;7.82;;;;;;;;;;5079953;28;20061;-87
2021/08/19 00:07:11;;;;;;;13.23;6.78;;;;;;;;;;5079835;28;20056;-86
2021/08/19 00:09:38;;;;;;;13.23;7.63;;;;;;;;;;5114186;28;20133;-86
2021/08/19 00:12:08;;;;;;;13.73;7.90;;;;;;;;;;5079515;28;20048;-86
2021/08/19 00:14:35;;;;;;;13.18;6.53;;;;;;;;;;5081695;28;20421;-87
2021/08/19 00:17:03;;;;;;;10.52;6.10;;;;;;;;;;5080146;28;20070;-85
2021/08/19 00:19:30;;;;;;;9.30;5.93;;;;;;;;;;5079297;28;20114;-86
2021/08/19 00:21:56;;;;;;;10.70;6.20;;;;;;;;;;5079287;28;20056;-86
2021/08/19 00:24:23;;;;;;;10.10;6.82;;;;;;;;;;5112100;28;20044;-86
2021/08/19 00:26:50;;;;;;;16.08;7.00;;;;;;;;;;5079160;28;20083;-86
2021/08/19 00:29:18;;;;;;;9.55;6.60;;;;;;;;;;5080030;28;20044;-86
2021/08/19 00:31:45;;;;;;;10.60;6.38;;;;;;;;;;5078504;28;20164;-86
2021/08/19 00:34:11;;;;;;;12.40;6.53;;;;;;;;;;5112121;28;20056;-86
2021/08/19 00:36:39;;;;;;;10.55;6.30;;;;;;;;;;5113357;28;20049;-86
2021/08/19 00:39:06;;;;;;;13.00;6.32;;;;;;;;;;5079177;28;20060;-86
2021/08/19 00:41:34;;;;;;;12.32;6.43;;;;;;;;;;5079933;28;20084;-86
2021/08/19 00:44:02;;;;;;;14.90;7.22;;;;;;;;;;5079501;28;20078;-86
2021/08/19 00:46:33;;;;;;;12.10;6.60;;;;;;;;;;5079303;28;20048;-86
2021/08/19 00:49:09;;;;;;;7.47;5.95;;;;;;;;;;5080773;28;20091;-87
2021/08/19 00:51:36;;;;;;;11.85;7.20;;;;;;;;;;5079176;28;20048;-87
2021/08/19 00:54:05;;;;;;;10.85;6.72;;;;;;;;;;5078370;28;20059;-86
2021/08/19 00:56:32;;;;;;;8.82;6.20;;;;;;;;;;5080523;28;20055;-87
2021/08/19 00:59:00;;;;;;;9.75;6.32;;;;;;;;;;5080869;28;20233;-85
2021/08/19 01:01:26;;;;;;;10.95;6.85;;;;;;;;;;5092383;28;20047;-84
2021/08/19 01:03:55;;;;;;;10.98;6.78;;;;;;;;;;5095754;28;20075;-88
2021/08/19 01:06:22;;;;;;;12.52;6.43;;;;;;;;;;5113409;28;20095;-85
2021/08/19 01:08:49;;;;;;;14.30;6.78;;;;;;;;;;5115594;28;20071;-86
2021/08/19 01:11:16;;;;;;;11.00;6.40;;;;;;;;;;5101843;28;20055;-85
2021/08/19 01:13:45;;;;;;;12.75;6.55;;;;;;;;;;5115859;28;20032;-87
2021/08/19 01:16:12;;;;;;;9.90;5.68;;;;;;;;;;5105538;28;20050;-86
2021/08/19 01:18:42;;;;;;;11.43;7.10;;;;;;;;;;5099518;28;20380;-86
2021/08/19 01:21:09;;;;;;;7.93;6.25;;;;;;;;;;5094213;28;20052;-86
2021/08/19 01:23:39;;;;;;;8.75;6.32;;;;;;;;;;5098166;28;20099;-87
2021/08/19 01:26:12;;;;;;;9.52;7.05;;;;;;;;;;5099564;28;20048;-86
2021/08/19 01:28:39;;;;;;;11.18;7.20;;;;;;;;;;5098301;28;20062;-86
2021/08/19 01:31:13;;;;;;;13.75;6.80;;;;;;;;;;5097698;28;20075;-86
2021/08/19 01:33:43;;;;;;;10.25;6.93;;;;;;;;;;5097156;28;20357;-87
2021/08/19 01:36:10;;;;;;;8.07;6.07;;;;;;;;;;5096735;28;20196;-86
2021/08/19 01:38:37;;;;;;;10.05;7.75;;;;;;;;;;5099866;28;20047;-86
2021/08/19 01:41:10;;;;;;;15.55;8.55;;;;;;;;;;5098020;28;20052;-86
2021/08/19 01:43:38;;;;;;;19.92;9.10;;;;;;;;;;5098863;28;20058;-86
2021/08/19 01:46:05;;;;;;;13.73;8.48;;;;;;;;;;5097726;28;20326;-86
2021/08/19 01:48:33;;;;;;;16.67;8.50;;;;;;;;;;5097596;28;20052;-86
2021/08/19 01:51:00;;;;;;;17.38;8.85;;;;;;;;;;5097451;28;20102;-86
2021/08/19 01:53:27;;;;;;;15.57;9.00;;;;;;;;;;5096708;28;20047;-86
2021/08/19 01:55:54;;;;;;;15.02;8.77;;;;;;;;;;5097648;28;20370;-86
2021/08/19 01:58:20;;;;;;;12.55;8.27;;;;;;;;;;5096569;28;20054;-86
2021/08/19 02:00:48;;;;;;;16.00;9.23;;;;;;;;;;5097114;28;20083;-86
2021/08/19 02:03:15;;;;;;;13.68;9.80;;;;;;;;;;5095952;28;20113;-87
2021/08/19 02:05:42;;;;;;;16.13;9.00;;;;;;;;;;5096910;28;20368;-86
2021/08/19 02:08:09;;;;;;;15.20;9.38;;;;;;;;;;5095998;28;20067;-86
2021/08/19 02:10:36;;;;;;;17.13;9.00;;;;;;;;;;5096342;28;20063;-87
2021/08/19 02:13:04;;;;;;;15.93;8.90;;;;;;;;;;5095536;28;20048;-86
2021/08/19 02:15:31;;;;;;;15.48;9.60;;;;;;;;;;5098930;28;20059;-87
2021/08/19 02:17:58;;;;;;;18.40;9.30;;;;;;;;;;5096649;28;20329;-86
2021/08/19 02:20:25;;;;;;;12.00;9.40;;;;;;;;;;5102881;28;20035;-86
2021/08/19 02:22:51;;;;;;;16.33;10.23;;;;;;;;;;5113335;28;20095;-87
2021/08/19 02:25:28;;;;;;;16.02;10.85;;;;;;;;;;5103593;28;20055;-86
2021/08/19 02:27:55;;;;;;;14.27;10.45;;;;;;;;;;5099709;28;20137;-87
2021/08/19 02:30:22;;;;;;;13.82;9.52;;;;;;;;;;5100688;28;20052;-87
2021/08/19 02:32:58;;;;;;;16.48;10.43;;;;;;;;;;5096802;28;20048;-86
2021/08/19 02:35:25;;;;;;;19.25;10.02;;;;;;;;;;5096303;28;20068;-86
2021/08/19 02:37:53;;;;;;;14.88;10.27;;;;;;;;;;5096481;28;20040;-86
2021/08/19 02:40:21;;;;;;;14.90;9.88;;;;;;;;;;5095814;28;20127;-86
2021/08/19 02:42:48;;;;;;;16.13;10.05;;;;;;;;;;5095432;28;20135;-86
2021/08/19 02:45:15;;;;;;;15.85;10.77;;;;;;;;;;5097669;28;20321;-86
2021/08/19 02:47:42;;;;;;;15.35;10.25;;;;;;;;;;5099824;28;20047;-87
2021/08/19 02:50:09;;;;;;;16.92;10.75;;;;;;;;;;5100457;28;20051;-87
2021/08/19 02:52:37;;;;;;;14.50;10.20;;;;;;;;;;5086471;28;20048;-86
2021/08/19 02:55:05;;;;;;;17.83;9.07;;;;;;;;;;5098059;28;20063;-87
2021/08/19 02:57:32;;;;;;;15.13;10.02;;;;;;;;;;5098056;28;20047;-86
2021/08/19 02:59:58;;;;;;;15.05;9.32;;;;;;;;;;5096162;28;20054;-86
2021/08/19 03:02:27;;;;;;;15.30;9.07;;;;;;;;;;5096829;28;20351;-86
2021/08/19 03:04:54;;;;;;;14.32;9.43;;;;;;;;;;5095283;28;20056;-86
2021/08/19 03:07:23;;;;;;;17.92;9.55;;;;;;;;;;5097275;28;20082;-86
2021/08/19 03:09:50;;;;;;;15.38;9.48;;;;;;;;;;5097239;28;20439;-87
2021/08/19 03:12:17;;;;;;;12.57;9.25;;;;;;;;;;5097755;28;20207;-86
2021/08/19 03:14:54;;;;;;;17.55;10.13;;;;;;;;;;5097749;28;20078;-87
2021/08/19 03:17:21;;;;;;;17.00;10.63;;;;;;;;;;5096915;28;20127;-86
2021/08/19 03:19:47;;;;;;;16.70;10.73;;;;;;;;;;5096123;28;20048;-87
2021/08/19 03:22:15;;;;;;;13.50;10.77;;;;;;;;;;5094067;28;20332;-86
2021/08/19 03:24:42;;;;;;;15.27;10.40;;;;;;;;;;5094264;28;20059;-86
2021/08/19 03:27:10;;;;;;;18.98;11.63;;;;;;;;;;5096081;28;20083;-87
2021/08/19 03:29:37;;;;;;;18.42;11.90;;;;;;;;;;5095473;28;20044;-87
2021/08/19 03:32:04;;;;;;;18.38;11.52;;;;;;;;;;5097300;28;20175;-87
2021/08/19 03:34:31;;;;;;;20.88;11.35;;;;;;;;;;5096679;28;20347;-86
2021/08/19 03:37:01;;;;;;;14.15;10.45;;;;;;;;;;5096020;28;20052;-86
2021/08/19 03:39:29;;;;;;;17.02;10.63;;;;;;;;;;5096700;28;20077;-87
2021/08/19 03:41:59;;;;;;;19.65;11.40;;;;;;;;;;5108681;28;20058;-87
2021/08/19 03:44:26;;;;;;;19.63;11.23;;;;;;;;;;5092544;28;20049;-86
2021/08/19 03:46:53;;;;;;;18.52;10.82;;;;;;;;;;5081063;28;20147;-86
2021/08/19 03:49:20;;;;;;;22.60;11.30;;;;;;;;;;5083312;28;20052;-87
2021/08/19 03:51:46;;;;;;;18.15;11.00;;;;;;;;;;5080650;28;20506;-86
2021/08/19 03:54:13;;;;;;;17.65;10.35;;;;;;;;;;5079573;28;20064;-87
2021/08/19 03:56:41;;;;;;;21.75;10.80;;;;;;;;;;5084125;28;20382;-87
2021/08/19 03:59:09;;;;;;;16.55;11.00;;;;;;;;;;5082880;28;20446;-87
2021/08/19 04:01:37;;;;;;;16.92;10.55;;;;;;;;;;5075594;28;20301;-87
2021/08/19 04:04:04;;;;;;;16.20;9.68;;;;;;;;;;5077813;28;20045;-86
2021/08/19 04:06:30;;;;;;;15.93;10.38;;;;;;;;;;5077249;28;20079;-86
2021/08/19 04:08:57;;;;;;;13.05;9.38;;;;;;;;;;5077260;28;20348;-86
2021/08/19 04:11:25;;;;;;;15.95;10.00;;;;;;;;;;5083606;28;20037;-87
2021/08/19 04:13:53;;;;;;;18.08;9.38;;;;;;;;;;5096019;28;20120;-86
2021/08/19 04:16:20;;;;;;;18.92;10.15;;;;;;;;;;5128968;28;20040;-86
2021/08/19 04:18:46;;;;;;;14.95;9.90;;;;;;;;;;5095970;28;20048;-86
2021/08/19 04:21:13;;;;;;;15.88;10.93;;;;;;;;;;5112652;27;20048;-87
2021/08/19 04:23:43;;;;;;;15.48;9.63;;;;;;;;;;5112001;28;20212;-85
2021/08/19 04:26:16;;;;;;;16.05;9.57;;;;;;;;;;5108805;28;20055;-87
2021/08/19 04:28:43;;;;;;;15.15;10.20;;;;;;;;;;5082067;28;20437;-87
2021/08/19 04:31:13;;;;;;;17.92;10.05;;;;;;;;;;5098725;28;20107;-87
2021/08/19 04:33:40;;;;;;;17.70;9.75;;;;;;;;;;5097859;28;20336;-86
2021/08/19 04:36:06;;;;;;;15.82;9.00;;;;;;;;;;5096931;28;20075;-87
2021/08/19 04:38:34;;;;;;;18.60;9.20;;;;;;;;;;5096074;28;20048;-88
2021/08/19 04:41:01;;;;;;;15.63;9.32;;;;;;;;;;5096065;28;20074;-87
2021/08/19 04:43:34;;;;;;;15.15;9.57;;;;;;;;;;5095937;28;20113;-87
2021/08/19 04:46:01;;;;;;;13.63;9.55;;;;;;;;;;5095468;28;20420;-87
2021/08/19 04:48:28;;;;;;;16.30;9.70;;;;;;;;;;5095700;28;20052;-87
2021/08/19 04:50:55;;;;;;;16.63;9.07;;;;;;;;;;5095650;28;20101;-87
2021/08/19 04:53:21;;;;;;;13.65;8.30;;;;;;;;;;5095561;28;20151;-85
2021/08/19 04:55:48;;;;;;;18.30;9.18;;;;;;;;;;5095472;28;20074;-87
2021/08/19 04:58:28;;;;;;;15.70;9.52;;;;;;;;;;5093329;28;20396;-88
2021/08/19 05:00:58;;;;;;;15.07;8.23;;;;;;;;;;5095738;28;20150;-86
2021/08/19 05:03:29;;;;;;;12.35;7.43;;;;;;;;;;5106601;28;20028;-86
2021/08/19 05:05:56;;;;;;;14.10;8.30;;;;;;;;;;5111148;28;20048;-86
2021/08/19 05:08:23;;;;;;;14.40;8.18;;;;;;;;;;5102262;28;20048;-86
2021/08/19 05:10:53;;;;;;;14.43;8.15;;;;;;;;;;5098067;28;20101;-86
2021/08/19 05:13:19;;;;;;;13.18;7.75;;;;;;;;;;5093649;28;20055;-86
2021/08/19 05:15:46;;;;;;;12.00;7.72;;;;;;;;;;5097081;28;20132;-86
2021/08/19 05:18:14;;;;;;;13.77;7.97;;;;;;;;;;5095652;28;20304;-87
2021/08/19 05:20:44;;;;;;;17.17;7.95;;;;;;;;;;5097177;28;20072;-87
2021/08/19 05:23:10;;;;;;;14.07;7.68;;;;;;;;;;5092747;28;20051;-87
2021/08/19 05:25:37;;;;;;;15.45;7.90;;;;;;;;;;5092829;28;20293;-86
2021/08/19 05:28:07;;;;;;;16.25;8.00;;;;;;;;;;5100836;28;20048;-86
2021/08/19 05:30:34;;;;;;;15.70;9.05;;;;;;;;;;5097042;28;20062;-87
2021/08/19 05:33:00;;;;;;;14.75;8.43;;;;;;;;;;5096636;28;20464;-87
2021/08/19 05:35:27;;;;;;;13.32;8.05;;;;;;;;;;5099450;28;20048;-87
2021/08/19 05:37:54;;;;;;;17.33;9.05;;;;;;;;;;5100399;28;20063;-87
2021/08/19 05:40:20;;;;;;;14.27;8.88;;;;;;;;;;5094519;28;20048;-87
2021/08/19 05:42:47;;;;;;;17.13;8.90;;;;;;;;;;5095580;28;20043;-86
2021/08/19 05:45:14;;;;;;;15.13;9.75;;;;;;;;;;5095507;28;20428;-87
2021/08/19 05:47:41;;;;;;;12.05;8.77;;;;;;;;;;5095304;28;20347;-87
2021/08/19 05:50:10;;;;;;;17.23;9.25;;;;;;;;;;5082175;28;20071;-87
2021/08/19 05:52:38;;;;;;;13.25;9.05;;;;;;;;;;5076073;28;20052;-86
2021/08/19 05:55:05;;;;;;;15.13;9.63;;;;;;;;;;5107310;28;20058;-87
2021/08/19 05:57:37;;;;;;;14.02;9.55;;;;;;;;;;5073596;28;20421;-87
2021/08/19 06:00:04;;;;;;;15.85;9.88;;;;;;;;;;5105451;28;20055;-87
2021/08/19 06:02:31;;;;;;;13.68;9.27;;;;;;;;;;5077181;28;20250;-87
2021/08/19 06:05:00;;;;;;;14.15;9.77;;;;;;;;;;5074618;28;20044;-87
2021/08/19 06:07:29;;;;;;;17.02;9.05;;;;;;;;;;5068955;28;20060;-87
2021/08/19 06:09:58;;;;;;;13.65;8.82;;;;;;;;;;5077475;28;20052;-86
2021/08/19 06:12:28;;;;;;;14.55;9.90;;;;;;;;;;5071624;28;20048;-86
2021/08/19 06:15:00;;;;;;;15.57;9.32;;;;;;;;;;5090517;28;20048;-86
2021/08/19 06:17:26;;;;;;;14.45;9.82;;;;;;;;;;5092213;28;20411;-85
2021/08/19 06:19:53;;;;;;;15.32;9.30;;;;;;;;;;5081838;28;20119;-87
2021/08/19 06:22:20;;;;;;;12.38;8.07;;;;;;;;;;5069794;28;20444;-87
2021/08/19 06:24:47;;;;;;;16.35;9.50;;;;;;;;;;5070648;28;20650;-87
2021/08/19 06:27:16;;;;;;;13.55;8.50;;;;;;;;;;5069454;28;20068;-86
2021/08/19 06:29:43;;;;;;;10.52;7.90;;;;;;;;;;5075625;28;20048;-85
2021/08/19 06:32:09;;;;;;;18.17;9.20;;;;;;;;;;5093648;28;20052;-85
2021/08/19 06:34:36;;;;;;;12.13;8.15;;;;;;;;;;5092260;28;20106;-86
2021/08/19 06:37:07;;;;;;;15.02;9.55;;;;;;;;;;5090842;28;20640;-86
2021/08/19 06:39:34;;;;;;;11.73;7.65;;;;;;;;;;5124152;27;20048;-86
2021/08/19 06:42:08;;;;;;;9.55;7.53;;;;;;;;;;5091647;28;20070;-86
2021/08/19 06:44:35;;;;;;;12.73;7.85;;;;;;;;;;5092623;28;20414;-86
2021/08/19 06:47:02;;;;;;;16.70;8.52;;;;;;;;;;5125230;27;20174;-86
2021/08/19 06:49:28;;;;;;;11.75;7.93;;;;;;;;;;5097704;28;20450;-86
2021/08/19 06:52:13;;;;;;;10.43;7.88;;;;;;;;;;5108014;28;20044;-86
2021/08/19 06:54:40;;;;;;;13.57;7.88;;;;;;;;;;5106458;28;20040;-85
2021/08/19 06:57:07;;;;;;;14.55;8.15;;;;;;;;;;5101032;28;20081;-86
2021/08/19 06:59:36;;;;;;;13.98;8.60;;;;;;;;;;5126827;28;20035;-86
2021/08/19 07:02:03;;;;;;;13.63;7.68;;;;;;;;;;5127712;28;20057;-86
2021/08/19 07:04:30;;;;;;;11.77;7.38;;;;;;;;;;5127263;28;20055;-85
2021/08/19 07:06:57;;;;;;;16.85;7.90;;;;;;;;;;5106876;28;20180;-85
2021/08/19 07:09:24;;;;;;;14.02;8.23;;;;;;;;;;5127722;27;20055;-86
2021/08/19 07:11:50;;;;;;;13.57;7.97;;;;;;;;;;5124995;27;20088;-85
2021/08/19 07:14:17;;;;;;;11.68;7.95;;;;;;;;;;5091364;28;20056;-86
2021/08/19 07:16:44;;;;;;;12.77;8.60;;;;;;;;;;5091936;28;20435;-87
2021/08/19 07:19:11;;;;;;;10.65;7.63;;;;;;;;;;5098082;28;20044;-86
2021/08/19 07:21:37;;;;;;;14.65;7.63;;;;;;;;;;5126456;28;20040;-86
2021/08/19 07:24:07;;;;;;;12.65;8.52;;;;;;;;;;5127203;28;20241;-86
2021/08/19 07:26:34;;;;;;;10.68;7.25;;;;;;;;;;5161594;27;20059;-86
2021/08/19 07:29:02;;;;;;;14.15;7.53;;;;;;;;;;5162213;27;20061;-85
2021/08/19 07:31:32;;;;;;;9.65;7.18;;;;;;;;;;5122197;27;20159;-86
2021/08/19 07:34:01;;;;;;;10.07;7.18;;;;;;;;;;5126768;28;20058;-87
2021/08/19 07:36:29;;;;;;;10.80;7.55;;;;;;;;;;5128847;28;20386;-86
2021/08/19 07:39:03;;;;;;;11.63;7.40;;;;;;;;;;5151940;27;20061;-86
2021/08/19 07:41:31;;;;;;;10.40;7.00;;;;;;;;;;5116193;28;20424;-86
2021/08/19 07:43:57;;;;;;;11.65;7.35;;;;;;;;;;5099175;28;20094;-87
2021/08/19 07:46:24;;;;;;;13.77;7.30;;;;;;;;;;5093189;28;20044;-87
2021/08/19 07:48:56;;;;;;;14.27;7.20;;;;;;;;;;5100928;28;20054;-87
2021/08/19 07:51:23;;;;;;;12.13;7.60;;;;;;;;;;5098309;28;20442;-86
2021/08/19 07:53:50;;;;;;;10.38;7.43;;;;;;;;;;5098761;28;20048;-86
2021/08/19 07:56:17;;;;;;;12.35;7.60;;;;;;;;;;5100155;28;20055;-86
2021/08/19 07:58:54;;;;;;;13.35;7.78;;;;;;;;;;5099656;28;20147;-87
2021/08/19 08:01:22;;;;;;;8.70;6.30;;;;;;;;;;5099208;28;20086;-86
2021/08/19 08:03:52;;;;;;;10.90;7.53;;;;;;;;;;5097775;28;20082;-87
2021/08/19 08:06:20;;;;;;;9.45;7.00;;;;;;;;;;5102720;28;20059;-85
2021/08/19 08:08:51;;;;;;;12.35;7.53;;;;;;;;;;5099557;28;20046;-85
2021/08/19 08:11:17;;;;;;;10.77;7.72;;;;;;;;;;5099231;28;20104;-86
2021/08/19 08:13:45;;;;;;;10.88;7.68;;;;;;;;;;5099900;28;20055;-87
2021/08/19 08:16:11;;;;;;;13.57;7.65;;;;;;;;;;5097687;28;20040;-85
2021/08/19 08:18:39;;;;;;;10.35;7.30;;;;;;;;;;5096252;28;20040;-85
2021/08/19 08:21:13;;;;;;;10.13;7.60;;;;;;;;;;5099562;28;20107;-86
2021/08/19 08:23:40;;;;;;;9.77;7.03;;;;;;;;;;5110931;28;20067;-87
2021/08/19 08:26:12;;;;;;;10.75;7.35;;;;;;;;;;5108192;28;20136;-86
2021/08/19 08:28:41;;;;;;;15.25;8.10;;;;;;;;;;5099074;28;20367;-87
2021/08/19 08:31:08;;;;;;;13.40;8.05;;;;;;;;;;5094643;28;20272;-86
2021/08/19 08:33:35;;;;;;;9.63;8.13;;;;;;;;;;5094554;28;20054;-86
2021/08/19 08:36:04;;;;;;;12.85;8.90;;;;;;;;;;5095888;28;20074;-84
2021/08/19 08:38:32;;;;;;;14.13;8.85;;;;;;;;;;5094823;28;20048;-85
2021/08/19 08:40:59;;;;;;;11.00;8.10;;;;;;;;;;5094725;28;20040;-86
2021/08/19 08:43:29;;;;;;;13.20;8.20;;;;;;;;;;5093397;28;20054;-86
2021/08/19 08:45:58;;;;;;;11.68;9.15;;;;;;;;;;5094067;28;20079;-86
2021/08/19 08:48:26;;;;;;;14.57;8.10;;;;;;;;;;5095450;28;20104;-86
2021/08/19 08:50:56;;;;;;;10.98;7.95;;;;;;;;;;5095965;28;20288;-86
2021/08/19 08:53:23;;;;;;;15.77;9.63;;;;;;;;;;5093459;28;20052;-85
2021/08/19 08:55:49;;;;;;;14.43;10.80;;;;;;;;;;5094758;28;20052;-85
2021/08/19 08:58:16;;;;;;;13.55;12.02;;;;;;;;;;5094163;28;20044;-86
2021/08/19 09:00:45;;;;;;;17.80;14.25;;;;;;;;;;5092964;28;20050;-85
2021/08/19 09:03:13;;;;;;;19.73;14.90;;;;;;;;;;5092851;28;20141;-85
2021/08/19 09:05:44;;;;;;;26.38;17.85;;;;;;;;;;5096888;28;20055;-86
2021/08/19 09:08:21;;;;;;;23.95;19.58;;;;;;;;;;5097728;28;20067;-85
2021/08/19 09:10:49;;;;;;;26.35;21.15;;;;;;;;;;5096682;28;20136;-86
2021/08/19 09:13:21;;;;;;;28.67;22.65;;;;;;;;;;5093804;28;20050;-84
2021/08/19 09:15:51;;;;;;;32.00;23.88;;;;;;;;;;5094449;28;20052;-83
2021/08/19 09:18:27;;;;;;;31.52;23.27;;;;;;;;;;5094405;28;20094;-82
2021/08/19 09:21:49;;;;;;;33.50;21.92;;;;;;;;;;5083098;28;20047;-84
2021/08/19 09:24:41;;;;;;;29.23;22.60;;;;;;;;;;5090358;28;20332;-84
2021/08/19 09:27:12;;;;;;;32.80;22.88;;;;;;;;;;5094059;28;20110;-82
2021/08/19 09:29:39;;;;;;;30.52;22.05;;;;;;;;;;5093925;28;20092;-83
2021/08/19 09:32:16;;;;;;;33.72;22.77;;;;;;;;;;5095982;28;20327;-83
2021/08/19 09:34:46;;;;;;;30.85;21.40;;;;;;;;;;5097860;28;20454;-83
2021/08/19 09:37:18;;;;;;;31.45;22.73;;;;;;;;;;5072870;28;20197;-83
2021/08/19 09:39:46;;;;;;;30.23;22.60;;;;;;;;;;5081043;28;20097;-84
2021/08/19 09:42:13;;;;;;;32.25;23.60;;;;;;;;;;5106952;28;20032;-84
2021/08/19 09:44:40;;;;;;;31.52;21.88;;;;;;;;;;5107646;28;20051;-83
2021/08/19 09:47:30;;;;;;;28.33;20.83;;;;;;;;;;5110583;28;20052;-83
2021/08/19 09:50:15;;;;;;;26.92;21.27;;;;;;;;;;5107921;28;20610;-83
2021/08/19 09:52:50;;;;;;;23.95;18.83;;;;;;;;;;5102153;28;20179;-85
2021/08/19 09:55:24;;;;;;;23.77;19.20;;;;;;;;;;5076600;28;20235;-83
2021/08/19 09:57:51;;;;;;;23.13;18.80;;;;;;;;;;5093950;28;20081;-83
2021/08/19 10:00:28;;;;;;;25.38;18.65;;;;;;;;;;5096007;28;20052;-85
2021/08/19 10:02:55;;;;;;;23.90;17.65;;;;;;;;;;5099179;28;20117;-86
2021/08/19 10:05:25;;;;;;;22.05;18.73;;;;;;;;;;5093306;28;20087;-86
2021/08/19 10:07:52;;;;;;;25.40;18.42;;;;;;;;;;5101902;28;20484;-86
2021/08/19 10:10:18;;;;;;;22.88;18.17;;;;;;;;;;5104769;28;20361;-86
2021/08/19 10:12:58;;;;;;;21.80;16.08;;;;;;;;;;5092705;28;20566;-85
2021/08/19 10:15:25;;;;;;;21.58;16.77;;;;;;;;;;5090049;28;20156;-87
2021/08/19 10:17:53;;;;;;;21.25;15.45;;;;;;;;;;5087351;28;20135;-87
2021/08/19 10:20:32;;;;;;;19.52;15.93;;;;;;;;;;5073665;28;20051;-87
2021/08/19 10:23:00;;;;;;;20.52;15.80;;;;;;;;;;5074895;28;20067;-86
2021/08/19 10:25:27;;;;;;;20.50;15.52;;;;;;;;;;5078729;28;20056;-87
2021/08/19 10:28:12;;;;;;;20.58;15.40;;;;;;;;;;5080306;28;20056;-87
2021/08/19 10:30:55;;;;;;;17.73;13.25;;;;;;;;;;5098242;28;20042;-87
2021/08/19 10:33:37;;;;;;;16.70;12.15;;;;;;;;;;5096708;28;20081;-87
2021/08/19 10:36:10;;;;;;;15.95;11.77;;;;;;;;;;5109821;28;20076;-89
2021/08/19 10:38:38;;;;;;;18.15;11.65;;;;;;;;;;5109248;28;20048;-86
2021/08/19 10:41:30;;;;;;;13.73;11.27;;;;;;;;;;5100675;28;20090;-86
2021/08/19 10:44:06;;;;;;;14.27;10.68;;;;;;;;;;5108035;28;20036;-86
2021/08/19 10:46:36;;;;;;;12.98;9.90;;;;;;;;;;5099974;28;20443;-87
2021/08/19 10:49:03;;;;;;;13.35;9.88;;;;;;;;;;5094604;28;20040;-87
2021/08/19 10:51:30;;;;;;;15.52;10.20;;;;;;;;;;5095915;28;20050;-88
2021/08/19 10:53:57;;;;;;;11.45;9.82;;;;;;;;;;5096987;28;20071;-87
2021/08/19 10:56:44;;;;;;;14.73;11.18;;;;;;;;;;5104400;28;20054;-88
2021/08/19 10:59:40;;;;;;;13.10;8.82;;;;;;;;;;5095026;28;20050;-87
2021/08/19 11:02:06;;;;;;;11.23;8.98;;;;;;;;;;5093502;28;20050;-86
2021/08/19 11:04:43;;;;;;;13.10;10.18;;;;;;;;;;5109499;28;20095;-87
2021/08/19 11:07:10;;;;;;;14.07;8.93;;;;;;;;;;5100958;28;20052;-88
2021/08/19 11:09:37;;;;;;;10.98;7.22;;;;;;;;;;5097108;28;20075;-88
2021/08/19 11:12:07;;;;;;;10.98;6.30;;;;;;;;;;5094306;28;20059;-88
2021/08/19 11:14:39;;;;;;;10.88;6.72;;;;;;;;;;5093086;28;20044;-88
2021/08/19 11:17:05;;;;;;;8.98;6.65;;;;;;;;;;5093978;28;20060;-87
2021/08/19 11:19:32;;;;;;;9.77;6.80;;;;;;;;;;5093903;28;20044;-87
2021/08/19 11:22:01;;;;;;;10.00;7.55;;;;;;;;;;5095312;28;20135;-86
2021/08/19 11:24:46;;;;;;;13.23;9.25;;;;;;;;;;5098326;28;20244;-85
2021/08/19 11:27:13;;;;;;;12.32;8.70;;;;;;;;;;5100734;28;20087;-84
2021/08/19 11:29:45;;;;;;;15.60;10.20;;;;;;;;;;5101219;28;20051;-85
2021/08/19 11:32:38;;;;;;;15.75;11.80;;;;;;;;;;5099894;28;20052;-84
2021/08/19 11:35:10;;;;;;;14.40;12.45;;;;;;;;;;5102589;28;20069;-84
2021/08/19 11:37:37;;;;;;;16.98;12.45;;;;;;;;;;5100983;28;20052;-87
2021/08/19 11:40:08;;;;;;;15.77;12.98;;;;;;;;;;5099610;28;20100;-86
2021/08/19 11:42:37;;;;;;;17.48;14.30;;;;;;;;;;5099856;28;20075;-85
2021/08/19 11:45:19;;;;;;;15.85;14.18;;;;;;;;;;5104946;28;20129;-86
2021/08/19 11:47:48;;;;;;;14.38;12.43;;;;;;;;;;5100138;28;20063;-86
2021/08/19 11:50:20;;;;;;;16.52;12.30;;;;;;;;;;5100826;28;20097;-86
2021/08/19 11:52:46;;;;;;;16.65;12.40;;;;;;;;;;5101709;28;20135;-86
2021/08/19 11:55:26;;;;;;;12.02;10.75;;;;;;;;;;5101162;28;20166;-86
2021/08/19 11:57:52;;;;;;;12.55;9.70;;;;;;;;;;5101647;28;20477;-85
2021/08/19 12:00:19;;;;;;;10.85;9.00;;;;;;;;;;5097754;28;20147;-85
2021/08/19 12:02:57;;;;;;;9.65;8.65;;;;;;;;;;5098908;28;20054;-86
2021/08/19 12:05:27;;;;;;;8.63;7.13;;;;;;;;;;5096807;28;20098;-87
2021/08/19 12:07:54;;;;;;;6.78;4.95;;;;;;;;;;5108894;28;20052;-86
2021/08/19 12:10:21;;;;;;;6.63;5.22;;;;;;;;;;5110557;28;20067;-86
2021/08/19 12:12:51;;;;;;;5.68;4.47;;;;;;;;;;5106662;28;20085;-82
2021/08/19 12:15:20;;;;;;;4.32;3.45;;;;;;;;;;5105024;28;20051;-82
2021/08/19 12:18:03;;;;;;;3.33;2.15;;;;;;;;;;5104669;28;20203;-82
2021/08/19 12:20:40;;;;;;;3.25;2.40;;;;;;;;;;5104908;28;20041;-82
2021/08/19 12:23:20;;;;;;;3.97;2.58;;;;;;;;;;5104488;28;20084;-82
2021/08/19 12:25:47;;;;;;;3.28;2.65;;;;;;;;;;5095134;28;20131;-82
2021/08/19 12:28:18;;;;;;;3.33;2.72;;;;;;;;;;5093689;28;20048;-82
2021/08/19 12:30:54;;;;;;;5.35;2.58;;;;;;;;;;5093314;28;20199;-82
2021/08/19 12:33:51;;;;;;;3.38;3.05;;;;;;;;;;5093722;28;20353;-83
2021/08/19 12:36:19;;;;;;;5.20;3.45;;;;;;;;;;5070606;28;20223;-83
2021/08/19 12:38:48;;;;;;;3.92;3.28;;;;;;;;;;5090536;28;20429;-83
2021/08/19 12:41:23;;;;;;;4.25;3.50;;;;;;;;;;5088865;28;20070;-82
2021/08/19 12:44:07;;;;;;;4.37;3.40;;;;;;;;;;5092241;28;20251;-83
2021/08/19 12:46:37;;;;;;;4.18;3.42;;;;;;;;;;5092155;28;20133;-85
2021/08/19 12:49:23;;;;;;;4.75;3.08;;;;;;;;;;5089210;28;20063;-82
2021/08/19 12:52:09;;;;;;;4.13;3.53;;;;;;;;;;5088936;28;20445;-82
2021/08/19 12:54:39;;;;;;;5.13;3.15;;;;;;;;;;5089083;28;20215;-83
2021/08/19 12:57:06;;;;;;;5.20;3.40;;;;;;;;;;5088565;28;20276;-83
2021/08/19 12:59:34;;;;;;;4.32;3.20;;;;;;;;;;5089829;28;20048;-81
2021/08/19 13:02:03;;;;;;;5.22;3.47;;;;;;;;;;5087037;28;20319;-82
2021/08/19 13:04:30;;;;;;;6.43;3.55;;;;;;;;;;5088501;28;20048;-81
2021/08/19 13:06:57;;;;;;;4.28;3.20;;;;;;;;;;5088449;28;20222;-82
2021/08/19 13:09:38;;;;;;;5.25;3.88;;;;;;;;;;5089321;28;20052;-82
2021/08/19 13:12:05;;;;;;;3.85;3.22;;;;;;;;;;5087195;28;20043;-82
2021/08/19 13:14:31;;;;;;;4.80;4.00;;;;;;;;;;5088977;28;20052;-83
2021/08/19 13:16:58;;;;;;;6.43;3.85;;;;;;;;;;5090535;28;20039;-84
2021/08/19 13:19:28;;;;;;;5.47;3.80;;;;;;;;;;5090366;28;20154;-82
2021/08/19 13:21:54;;;;;;;4.70;3.20;;;;;;;;;;5090356;28;20055;-83
2021/08/19 13:24:21;;;;;;;6.28;4.00;;;;;;;;;;5090864;28;20332;-83
2021/08/19 13:26:48;;;;;;;6.32;3.67;;;;;;;;;;5093970;28;20090;-83
2021/08/19 13:29:15;;;;;;;4.15;3.40;;;;;;;;;;5090719;28;20225;-84
2021/08/19 13:31:42;;;;;;;4.93;3.67;;;;;;;;;;5092241;28;20146;-85
2021/08/19 13:34:10;;;;;;;5.22;3.83;;;;;;;;;;5091816;28;20055;-85
2021/08/19 13:36:58;;;;;;;5.78;4.15;;;;;;;;;;5093711;28;20556;-84
2021/08/19 13:39:28;;;;;;;4.65;4.10;;;;;;;;;;5109824;28;20074;-83
2021/08/19 13:41:55;;;;;;;8.18;4.35;;;;;;;;;;5109272;28;20092;-84
2021/08/19 13:44:28;;;;;;;7.75;4.88;;;;;;;;;;5109049;28;20063;-83
2021/08/19 13:46:55;;;;;;;7.90;5.25;;;;;;;;;;5108225;28;20184;-84
2021/08/19 13:49:23;;;;;;;7.60;4.90;;;;;;;;;;5092117;28;20142;-84
2021/08/19 13:51:49;;;;;;;7.07;6.10;;;;;;;;;;5105692;28;20074;-83
2021/08/19 13:54:19;;;;;;;9.15;5.78;;;;;;;;;;5099476;28;20112;-84
2021/08/19 13:56:47;;;;;;;7.53;6.22;;;;;;;;;;5090958;28;20048;-83
2021/08/19 13:59:17;;;;;;;8.95;6.20;;;;;;;;;;5089230;28;20224;-83
2021/08/19 14:01:44;;;;;;;8.88;6.65;;;;;;;;;;5088578;28;20416;-83
2021/08/19 14:04:11;;;;;;;8.93;6.82;;;;;;;;;;5095709;28;20055;-83
2021/08/19 14:06:38;;;;;;;9.45;6.25;;;;;;;;;;5093781;28;20051;-84
2021/08/19 14:09:05;;;;;;;7.63;6.32;;;;;;;;;;5092044;28;20055;-83
2021/08/19 14:11:32;;;;;;;9.15;6.60;;;;;;;;;;5089469;28;20316;-82
2021/08/19 14:14:01;;;;;;;10.95;7.05;;;;;;;;;;5089018;28;20385;-84
2021/08/19 14:16:27;;;;;;;8.90;5.78;;;;;;;;;;5090428;28;20044;-85
2021/08/19 14:18:54;;;;;;;8.70;5.80;;;;;;;;;;5093641;28;20319;-84
2021/08/19 14:21:21;;;;;;;11.57;5.50;;;;;;;;;;5096068;28;20134;-84
2021/08/19 14:23:48;;;;;;;8.25;5.75;;;;;;;;;;5093628;28;20055;-84
2021/08/19 14:26:21;;;;;;;9.88;5.55;;;;;;;;;;5095451;28;20629;-84
2021/08/19 14:28:47;;;;;;;7.63;5.55;;;;;;;;;;5094072;28;20062;-84
2021/08/19 14:31:14;;;;;;;8.48;6.00;;;;;;;;;;5090387;28;20106;-84
2021/08/19 14:33:43;;;;;;;7.80;5.60;;;;;;;;;;5074183;28;20040;-85
2021/08/19 14:36:21;;;;;;;7.22;5.72;;;;;;;;;;5090954;28;20039;-83
2021/08/19 14:38:49;;;;;;;6.55;5.10;;;;;;;;;;5091865;28;20056;-84
2021/08/19 14:41:16;;;;;;;7.95;5.25;;;;;;;;;;5091622;28;20147;-85
2021/08/19 14:43:43;;;;;;;8.20;5.57;;;;;;;;;;5090447;28;20147;-85